sensor_id;sensor_type;location;lat;lon;timestamp;P1;durP1;ratioP1;P2;durP2;ratioP2
42098;SDS011;27758;55.900;8.516;2023-02-24T00:01:41;31.50;;;3.92;;
42098;SDS011;27758;55.900;8.516;2023-02-24T00:04:10;12.40;;;1.83;;
42098;SDS011;27758;55.900;8.516;2023-02-24T00:06:39;20.30;;;3.15;;
42098;SDS011;27758;55.900;8.516;2023-02-24T00:11:33;10.57;;;2.38;;
42098;SDS011;27758;55.900;8.516;2023-02-24T00:14:00;16.15;;;2.42;;
42098;SDS011;27758;55.900;8.516;2023-02-24T00:16:30;16.58;;;2.85;;
42098;SDS011;27758;55.900;8.516;2023-02-24T00:18:56;14.52;;;2.45;;
42098;SDS011;27758;55.900;8.516;2023-02-24T00:21:22;20.65;;;3.03;;
42098;SDS011;27758;55.900;8.516;2023-02-24T00:23:48;19.15;;;4.28;;
42098;SDS011;27758;55.900;8.516;2023-02-24T00:26:14;18.73;;;3.97;;
42098;SDS011;27758;55.900;8.516;2023-02-24T00:28:40;17.50;;;2.80;;
42098;SDS011;27758;55.900;8.516;2023-02-24T00:31:16;17.88;;;3.25;;
42098;SDS011;27758;55.900;8.516;2023-02-24T00:33:43;18.02;;;3.40;;
42098;SDS011;27758;55.900;8.516;2023-02-24T00:38:38;22.58;;;3.45;;
42098;SDS011;27758;55.900;8.516;2023-02-24T00:41:15;17.77;;;2.92;;
42098;SDS011;27758;55.900;8.516;2023-02-24T00:43:43;19.42;;;3.00;;
42098;SDS011;27758;55.900;8.516;2023-02-24T00:46:16;23.00;;;3.63;;
42098;SDS011;27758;55.900;8.516;2023-02-24T00:48:48;21.55;;;3.38;;
42098;SDS011;27758;55.900;8.516;2023-02-24T00:51:19;18.25;;;3.80;;
42098;SDS011;27758;55.900;8.516;2023-02-24T00:53:52;29.27;;;4.45;;
42098;SDS011;27758;55.900;8.516;2023-02-24T00:56:20;26.30;;;5.20;;
42098;SDS011;27758;55.900;8.516;2023-02-24T00:58:46;22.77;;;3.53;;
42098;SDS011;27758;55.900;8.516;2023-02-24T01:01:13;26.55;;;4.43;;
42098;SDS011;27758;55.900;8.516;2023-02-24T01:03:41;27.75;;;4.45;;
42098;SDS011;27758;55.900;8.516;2023-02-24T01:06:12;16.30;;;2.92;;
42098;SDS011;27758;55.900;8.516;2023-02-24T01:08:38;28.17;;;4.40;;
42098;SDS011;27758;55.900;8.516;2023-02-24T01:11:12;25.20;;;4.03;;
42098;SDS011;27758;55.900;8.516;2023-02-24T01:13:58;19.40;;;3.88;;
42098;SDS011;27758;55.900;8.516;2023-02-24T01:16:24;24.83;;;4.13;;
42098;SDS011;27758;55.900;8.516;2023-02-24T01:18:49;20.20;;;3.65;;
42098;SDS011;27758;55.900;8.516;2023-02-24T01:21:16;24.83;;;4.00;;
42098;SDS011;27758;55.900;8.516;2023-02-24T01:23:47;20.40;;;3.40;;
42098;SDS011;27758;55.900;8.516;2023-02-24T01:26:14;23.02;;;4.63;;
42098;SDS011;27758;55.900;8.516;2023-02-24T01:28:41;20.35;;;3.70;;
42098;SDS011;27758;55.900;8.516;2023-02-24T01:31:07;24.52;;;4.07;;
42098;SDS011;27758;55.900;8.516;2023-02-24T01:33:33;19.02;;;4.10;;
42098;SDS011;27758;55.900;8.516;2023-02-24T01:36:11;23.50;;;3.88;;
42098;SDS011;27758;55.900;8.516;2023-02-24T01:38:38;18.27;;;3.80;;
42098;SDS011;27758;55.900;8.516;2023-02-24T01:41:06;31.98;;;5.15;;
42098;SDS011;27758;55.900;8.516;2023-02-24T01:43:33;25.63;;;4.03;;
42098;SDS011;27758;55.900;8.516;2023-02-24T01:46:33;27.77;;;3.78;;
42098;SDS011;27758;55.900;8.516;2023-02-24T01:49:02;16.98;;;3.13;;
42098;SDS011;27758;55.900;8.516;2023-02-24T01:51:38;23.17;;;3.47;;
42098;SDS011;27758;55.900;8.516;2023-02-24T01:54:09;19.63;;;4.18;;
42098;SDS011;27758;55.900;8.516;2023-02-24T01:56:39;24.25;;;3.65;;
42098;SDS011;27758;55.900;8.516;2023-02-24T01:59:06;22.33;;;3.60;;
42098;SDS011;27758;55.900;8.516;2023-02-24T02:01:34;13.88;;;2.65;;
42098;SDS011;27758;55.900;8.516;2023-02-24T02:04:14;22.33;;;3.30;;
42098;SDS011;27758;55.900;8.516;2023-02-24T02:06:44;20.15;;;3.05;;
42098;SDS011;27758;55.900;8.516;2023-02-24T02:09:11;17.27;;;2.85;;
42098;SDS011;27758;55.900;8.516;2023-02-24T02:11:39;11.35;;;2.40;;
42098;SDS011;27758;55.900;8.516;2023-02-24T02:14:06;11.80;;;2.28;;
42098;SDS011;27758;55.900;8.516;2023-02-24T02:19:39;23.50;;;2.92;;
42098;SDS011;27758;55.900;8.516;2023-02-24T02:36:36;15.35;;;2.08;;
42098;SDS011;27758;55.900;8.516;2023-02-24T02:44:36;15.70;;;3.03;;
42098;SDS011;27758;55.900;8.516;2023-02-24T02:49:50;11.50;;;2.45;;
42098;SDS011;27758;55.900;8.516;2023-02-24T02:52:29;13.32;;;2.22;;
42098;SDS011;27758;55.900;8.516;2023-02-24T02:55:00;10.35;;;2.55;;
42098;SDS011;27758;55.900;8.516;2023-02-24T02:57:34;10.10;;;2.08;;
42098;SDS011;27758;55.900;8.516;2023-02-24T03:00:11;22.98;;;3.05;;
42098;SDS011;27758;55.900;8.516;2023-02-24T03:02:54;8.48;;;1.67;;
42098;SDS011;27758;55.900;8.516;2023-02-24T03:05:29;14.40;;;2.03;;
42098;SDS011;27758;55.900;8.516;2023-02-24T03:08:08;8.25;;;1.52;;
42098;SDS011;27758;55.900;8.516;2023-02-24T03:10:35;18.83;;;3.15;;
42098;SDS011;27758;55.900;8.516;2023-02-24T03:13:03;8.63;;;1.70;;
42098;SDS011;27758;55.900;8.516;2023-02-24T03:15:32;11.77;;;2.28;;
42098;SDS011;27758;55.900;8.516;2023-02-24T03:18:00;11.32;;;1.98;;
42098;SDS011;27758;55.900;8.516;2023-02-24T03:23:31;7.53;;;1.48;;
42098;SDS011;27758;55.900;8.516;2023-02-24T03:29:10;10.05;;;1.98;;
42098;SDS011;27758;55.900;8.516;2023-02-24T03:31:49;18.35;;;2.00;;
42098;SDS011;27758;55.900;8.516;2023-02-24T03:37:03;20.35;;;3.42;;
42098;SDS011;27758;55.900;8.516;2023-02-24T03:39:29;14.60;;;2.90;;
42098;SDS011;27758;55.900;8.516;2023-02-24T03:42:15;17.92;;;3.83;;
42098;SDS011;27758;55.900;8.516;2023-02-24T03:44:43;14.18;;;3.03;;
42098;SDS011;27758;55.900;8.516;2023-02-24T03:47:10;17.25;;;2.75;;
42098;SDS011;27758;55.900;8.516;2023-02-24T03:49:36;28.08;;;3.10;;
42098;SDS011;27758;55.900;8.516;2023-02-24T04:03:12;14.55;;;2.30;;
42098;SDS011;27758;55.900;8.516;2023-02-24T04:06:00;18.67;;;3.58;;
42098;SDS011;27758;55.900;8.516;2023-02-24T04:08:53;24.35;;;2.80;;
42098;SDS011;27758;55.900;8.516;2023-02-24T04:11:52;25.42;;;4.15;;
42098;SDS011;27758;55.900;8.516;2023-02-24T04:14:23;22.65;;;2.55;;
42098;SDS011;27758;55.900;8.516;2023-02-24T04:16:56;25.30;;;3.53;;
42098;SDS011;27758;55.900;8.516;2023-02-24T04:19:28;21.77;;;5.30;;
42098;SDS011;27758;55.900;8.516;2023-02-24T04:21:57;25.45;;;4.80;;
42098;SDS011;27758;55.900;8.516;2023-02-24T04:24:25;20.88;;;3.53;;
42098;SDS011;27758;55.900;8.516;2023-02-24T04:26:54;22.27;;;2.97;;
42098;SDS011;27758;55.900;8.516;2023-02-24T04:29:23;22.52;;;3.63;;
42098;SDS011;27758;55.900;8.516;2023-02-24T04:31:54;27.30;;;4.13;;
42098;SDS011;27758;55.900;8.516;2023-02-24T04:34:24;21.17;;;3.63;;
42098;SDS011;27758;55.900;8.516;2023-02-24T04:36:53;16.38;;;2.95;;
42098;SDS011;27758;55.900;8.516;2023-02-24T04:39:19;19.67;;;2.50;;
42098;SDS011;27758;55.900;8.516;2023-02-24T04:41:47;19.35;;;3.20;;
42098;SDS011;27758;55.900;8.516;2023-02-24T04:44:17;21.10;;;3.10;;
42098;SDS011;27758;55.900;8.516;2023-02-24T04:46:45;18.13;;;3.15;;
42098;SDS011;27758;55.900;8.516;2023-02-24T04:49:12;18.42;;;3.85;;
42098;SDS011;27758;55.900;8.516;2023-02-24T04:51:38;15.55;;;3.03;;
42098;SDS011;27758;55.900;8.516;2023-02-24T04:54:14;13.50;;;2.25;;
42098;SDS011;27758;55.900;8.516;2023-02-24T04:56:44;15.93;;;2.95;;
42098;SDS011;27758;55.900;8.516;2023-02-24T04:59:12;14.05;;;2.67;;
42098;SDS011;27758;55.900;8.516;2023-02-24T05:01:39;8.00;;;1.77;;
42098;SDS011;27758;55.900;8.516;2023-02-24T05:04:09;12.35;;;2.30;;
42098;SDS011;27758;55.900;8.516;2023-02-24T05:06:36;9.95;;;2.30;;
42098;SDS011;27758;55.900;8.516;2023-02-24T05:09:08;17.20;;;2.75;;
42098;SDS011;27758;55.900;8.516;2023-02-24T05:11:44;24.42;;;4.22;;
42098;SDS011;27758;55.900;8.516;2023-02-24T05:14:13;10.57;;;2.10;;
42098;SDS011;27758;55.900;8.516;2023-02-24T05:16:43;22.20;;;3.75;;
42098;SDS011;27758;55.900;8.516;2023-02-24T05:19:11;17.25;;;3.05;;
42098;SDS011;27758;55.900;8.516;2023-02-24T05:21:56;20.00;;;2.97;;
42098;SDS011;27758;55.900;8.516;2023-02-24T05:24:23;22.20;;;3.97;;
42098;SDS011;27758;55.900;8.516;2023-02-24T05:26:51;26.23;;;4.32;;
42098;SDS011;27758;55.900;8.516;2023-02-24T05:29:24;30.10;;;5.25;;
42098;SDS011;27758;55.900;8.516;2023-02-24T05:31:52;20.45;;;4.22;;
42098;SDS011;27758;55.900;8.516;2023-02-24T05:34:18;28.98;;;4.47;;
42098;SDS011;27758;55.900;8.516;2023-02-24T05:36:45;31.63;;;5.25;;
42098;SDS011;27758;55.900;8.516;2023-02-24T05:39:13;36.35;;;5.88;;
42098;SDS011;27758;55.900;8.516;2023-02-24T05:41:43;42.20;;;6.95;;
42098;SDS011;27758;55.900;8.516;2023-02-24T05:44:18;47.37;;;10.43;;
42098;SDS011;27758;55.900;8.516;2023-02-24T05:46:50;51.92;;;10.18;;
42098;SDS011;27758;55.900;8.516;2023-02-24T05:49:23;31.77;;;7.53;;
42098;SDS011;27758;55.900;8.516;2023-02-24T05:51:57;56.83;;;9.90;;
42098;SDS011;27758;55.900;8.516;2023-02-24T05:54:29;52.72;;;11.18;;
42098;SDS011;27758;55.900;8.516;2023-02-24T05:57:01;45.13;;;8.65;;
42098;SDS011;27758;55.900;8.516;2023-02-24T05:59:29;39.10;;;9.73;;
42098;SDS011;27758;55.900;8.516;2023-02-24T06:01:57;54.78;;;8.43;;
42098;SDS011;27758;55.900;8.516;2023-02-24T06:04:25;47.80;;;7.45;;
42098;SDS011;27758;55.900;8.516;2023-02-24T06:07:13;39.58;;;6.45;;
42098;SDS011;27758;55.900;8.516;2023-02-24T06:09:48;49.55;;;8.57;;
42098;SDS011;27758;55.900;8.516;2023-02-24T06:12:18;53.03;;;8.32;;
42098;SDS011;27758;55.900;8.516;2023-02-24T06:14:45;50.70;;;8.18;;
42098;SDS011;27758;55.900;8.516;2023-02-24T06:17:11;60.63;;;8.38;;
42098;SDS011;27758;55.900;8.516;2023-02-24T06:19:39;44.35;;;8.15;;
42098;SDS011;27758;55.900;8.516;2023-02-24T06:22:05;50.47;;;6.95;;
42098;SDS011;27758;55.900;8.516;2023-02-24T06:24:35;43.83;;;7.18;;
42098;SDS011;27758;55.900;8.516;2023-02-24T06:27:03;46.92;;;7.82;;
42098;SDS011;27758;55.900;8.516;2023-02-24T06:29:35;49.47;;;8.80;;
42098;SDS011;27758;55.900;8.516;2023-02-24T06:32:01;39.83;;;7.30;;
42098;SDS011;27758;55.900;8.516;2023-02-24T06:34:36;44.20;;;8.65;;
42098;SDS011;27758;55.900;8.516;2023-02-24T06:37:02;39.20;;;8.10;;
42098;SDS011;27758;55.900;8.516;2023-02-24T06:39:29;45.58;;;8.93;;
42098;SDS011;27758;55.900;8.516;2023-02-24T06:41:56;63.55;;;9.40;;
42098;SDS011;27758;55.900;8.516;2023-02-24T06:44:28;45.88;;;8.68;;
42098;SDS011;27758;55.900;8.516;2023-02-24T06:46:55;44.85;;;8.30;;
42098;SDS011;27758;55.900;8.516;2023-02-24T06:49:22;45.40;;;8.30;;
42098;SDS011;27758;55.900;8.516;2023-02-24T06:51:48;28.65;;;5.63;;
42098;SDS011;27758;55.900;8.516;2023-02-24T06:54:14;38.70;;;6.97;;
42098;SDS011;27758;55.900;8.516;2023-02-24T06:56:40;44.97;;;7.78;;
42098;SDS011;27758;55.900;8.516;2023-02-24T06:59:06;41.40;;;7.22;;
42098;SDS011;27758;55.900;8.516;2023-02-24T07:04:09;35.17;;;7.60;;
42098;SDS011;27758;55.900;8.516;2023-02-24T07:06:37;39.33;;;6.93;;
42098;SDS011;27758;55.900;8.516;2023-02-24T07:09:11;34.47;;;6.13;;
42098;SDS011;27758;55.900;8.516;2023-02-24T07:11:38;41.53;;;6.57;;
42098;SDS011;27758;55.900;8.516;2023-02-24T07:14:06;35.08;;;8.13;;
42098;SDS011;27758;55.900;8.516;2023-02-24T07:16:33;34.10;;;7.03;;
42098;SDS011;27758;55.900;8.516;2023-02-24T07:19:00;33.15;;;6.72;;
42098;SDS011;27758;55.900;8.516;2023-02-24T07:21:29;41.88;;;6.90;;
42098;SDS011;27758;55.900;8.516;2023-02-24T07:24:03;36.78;;;7.07;;
42098;SDS011;27758;55.900;8.516;2023-02-24T07:26:30;35.53;;;7.00;;
42098;SDS011;27758;55.900;8.516;2023-02-24T07:28:55;37.72;;;6.50;;
42098;SDS011;27758;55.900;8.516;2023-02-24T07:31:22;34.65;;;7.25;;
42098;SDS011;27758;55.900;8.516;2023-02-24T07:33:52;23.42;;;4.90;;
42098;SDS011;27758;55.900;8.516;2023-02-24T07:36:21;43.13;;;6.22;;
42098;SDS011;27758;55.900;8.516;2023-02-24T07:38:48;37.22;;;6.70;;
42098;SDS011;27758;55.900;8.516;2023-02-24T07:41:16;42.10;;;8.43;;
42098;SDS011;27758;55.900;8.516;2023-02-24T07:43:43;44.92;;;7.55;;
42098;SDS011;27758;55.900;8.516;2023-02-24T07:46:11;40.08;;;7.53;;
42098;SDS011;27758;55.900;8.516;2023-02-24T07:48:39;35.90;;;7.25;;
42098;SDS011;27758;55.900;8.516;2023-02-24T07:51:12;38.72;;;7.90;;
42098;SDS011;27758;55.900;8.516;2023-02-24T07:53:39;43.45;;;7.65;;
42098;SDS011;27758;55.900;8.516;2023-02-24T07:56:09;38.55;;;8.55;;
42098;SDS011;27758;55.900;8.516;2023-02-24T07:58:45;43.13;;;8.25;;
42098;SDS011;27758;55.900;8.516;2023-02-24T08:01:16;36.42;;;8.45;;
42098;SDS011;27758;55.900;8.516;2023-02-24T08:03:49;45.22;;;7.90;;
42098;SDS011;27758;55.900;8.516;2023-02-24T08:06:16;34.30;;;7.38;;
42098;SDS011;27758;55.900;8.516;2023-02-24T08:08:54;43.05;;;6.90;;
42098;SDS011;27758;55.900;8.516;2023-02-24T08:14:00;39.42;;;6.68;;
42098;SDS011;27758;55.900;8.516;2023-02-24T08:16:29;39.42;;;8.25;;
42098;SDS011;27758;55.900;8.516;2023-02-24T08:19:07;40.10;;;7.43;;
42098;SDS011;27758;55.900;8.516;2023-02-24T08:21:41;49.40;;;9.55;;
42098;SDS011;27758;55.900;8.516;2023-02-24T08:24:14;36.45;;;7.28;;
42098;SDS011;27758;55.900;8.516;2023-02-24T08:26:43;32.47;;;9.50;;
42098;SDS011;27758;55.900;8.516;2023-02-24T08:29:10;27.67;;;6.45;;
42098;SDS011;27758;55.900;8.516;2023-02-24T08:31:36;25.38;;;6.93;;
42098;SDS011;27758;55.900;8.516;2023-02-24T08:34:02;25.92;;;7.40;;
42098;SDS011;27758;55.900;8.516;2023-02-24T08:36:28;23.10;;;6.05;;
42098;SDS011;27758;55.900;8.516;2023-02-24T08:38:53;27.05;;;4.95;;
42098;SDS011;27758;55.900;8.516;2023-02-24T08:41:23;29.25;;;5.97;;
42098;SDS011;27758;55.900;8.516;2023-02-24T08:44:09;34.78;;;5.65;;
42098;SDS011;27758;55.900;8.516;2023-02-24T08:46:35;29.67;;;4.55;;
42098;SDS011;27758;55.900;8.516;2023-02-24T08:49:01;30.92;;;4.90;;
42098;SDS011;27758;55.900;8.516;2023-02-24T08:51:36;35.40;;;5.07;;
42098;SDS011;27758;55.900;8.516;2023-02-24T08:54:15;36.38;;;5.28;;
42098;SDS011;27758;55.900;8.516;2023-02-24T08:56:44;26.83;;;6.30;;
42098;SDS011;27758;55.900;8.516;2023-02-24T08:59:20;42.42;;;6.35;;
42098;SDS011;27758;55.900;8.516;2023-02-24T09:02:01;32.08;;;6.35;;
42098;SDS011;27758;55.900;8.516;2023-02-24T09:07:18;38.83;;;7.45;;
42098;SDS011;27758;55.900;8.516;2023-02-24T09:09:49;28.02;;;5.50;;
42098;SDS011;27758;55.900;8.516;2023-02-24T09:12:20;30.40;;;5.50;;
42098;SDS011;27758;55.900;8.516;2023-02-24T09:14:51;35.22;;;6.05;;
42098;SDS011;27758;55.900;8.516;2023-02-24T09:17:22;34.22;;;5.90;;
42098;SDS011;27758;55.900;8.516;2023-02-24T09:20:22;29.63;;;5.10;;
42098;SDS011;27758;55.900;8.516;2023-02-24T09:22:55;34.10;;;4.93;;
42098;SDS011;27758;55.900;8.516;2023-02-24T09:25:28;34.72;;;5.65;;
42098;SDS011;27758;55.900;8.516;2023-02-24T09:28:06;28.92;;;6.10;;
42098;SDS011;27758;55.900;8.516;2023-02-24T09:30:38;55.42;;;5.72;;
42098;SDS011;27758;55.900;8.516;2023-02-24T09:35:58;30.10;;;6.05;;
42098;SDS011;27758;55.900;8.516;2023-02-24T09:38:43;34.92;;;7.28;;
42098;SDS011;27758;55.900;8.516;2023-02-24T09:44:33;27.35;;;5.45;;
42098;SDS011;27758;55.900;8.516;2023-02-24T09:49:59;27.65;;;4.85;;
42098;SDS011;27758;55.900;8.516;2023-02-24T09:52:38;23.83;;;5.22;;
42098;SDS011;27758;55.900;8.516;2023-02-24T09:55:47;19.65;;;4.95;;
42098;SDS011;27758;55.900;8.516;2023-02-24T10:03:56;24.17;;;4.60;;
42098;SDS011;27758;55.900;8.516;2023-02-24T10:06:38;20.27;;;3.78;;
42098;SDS011;27758;55.900;8.516;2023-02-24T10:11:42;19.27;;;3.50;;
42098;SDS011;27758;55.900;8.516;2023-02-24T10:16:54;21.35;;;3.95;;
42098;SDS011;27758;55.900;8.516;2023-02-24T10:19:42;19.85;;;3.95;;
42098;SDS011;27758;55.900;8.516;2023-02-24T10:22:17;20.45;;;3.75;;
42098;SDS011;27758;55.900;8.516;2023-02-24T10:33:44;17.08;;;3.90;;
42098;SDS011;27758;55.900;8.516;2023-02-24T10:38:38;18.83;;;3.30;;
42098;SDS011;27758;55.900;8.516;2023-02-24T10:43:32;19.17;;;3.35;;
42098;SDS011;27758;55.900;8.516;2023-02-24T10:46:17;18.65;;;3.72;;
42098;SDS011;27758;55.900;8.516;2023-02-24T10:48:57;24.92;;;4.35;;
42098;SDS011;27758;55.900;8.516;2023-02-24T10:51:27;18.08;;;3.30;;
42098;SDS011;27758;55.900;8.516;2023-02-24T10:54:06;18.67;;;2.72;;
42098;SDS011;27758;55.900;8.516;2023-02-24T10:56:58;20.48;;;3.28;;
42098;SDS011;27758;55.900;8.516;2023-02-24T11:00:06;17.92;;;3.25;;
42098;SDS011;27758;55.900;8.516;2023-02-24T11:02:54;25.60;;;5.25;;
42098;SDS011;27758;55.900;8.516;2023-02-24T11:05:33;22.40;;;3.58;;
42098;SDS011;27758;55.900;8.516;2023-02-24T11:08:13;15.77;;;3.25;;
42098;SDS011;27758;55.900;8.516;2023-02-24T11:11:00;27.88;;;5.25;;
42098;SDS011;27758;55.900;8.516;2023-02-24T11:13:31;21.40;;;4.20;;
42098;SDS011;27758;55.900;8.516;2023-02-24T11:16:16;16.17;;;3.47;;
42098;SDS011;27758;55.900;8.516;2023-02-24T11:19:01;23.73;;;3.85;;
42098;SDS011;27758;55.900;8.516;2023-02-24T11:21:29;24.30;;;4.15;;
42098;SDS011;27758;55.900;8.516;2023-02-24T11:23:56;19.38;;;3.10;;
42098;SDS011;27758;55.900;8.516;2023-02-24T11:26:36;17.90;;;3.72;;
42098;SDS011;27758;55.900;8.516;2023-02-24T11:34:25;19.98;;;4.20;;
42098;SDS011;27758;55.900;8.516;2023-02-24T11:42:11;23.88;;;3.72;;
42098;SDS011;27758;55.900;8.516;2023-02-24T11:44:46;18.40;;;4.18;;
42098;SDS011;27758;55.900;8.516;2023-02-24T11:47:28;15.98;;;3.58;;
42098;SDS011;27758;55.900;8.516;2023-02-24T11:52:37;14.15;;;3.85;;
42098;SDS011;27758;55.900;8.516;2023-02-24T11:55:13;14.13;;;3.22;;
42098;SDS011;27758;55.900;8.516;2023-02-24T11:58:05;18.80;;;3.75;;
42098;SDS011;27758;55.900;8.516;2023-02-24T12:01:12;17.38;;;3.45;;
42098;SDS011;27758;55.900;8.516;2023-02-24T12:03:51;18.38;;;2.97;;
42098;SDS011;27758;55.900;8.516;2023-02-24T12:06:38;18.95;;;4.07;;
42098;SDS011;27758;55.900;8.516;2023-02-24T12:09:12;22.88;;;4.72;;
42098;SDS011;27758;55.900;8.516;2023-02-24T12:11:54;21.42;;;3.67;;
42098;SDS011;27758;55.900;8.516;2023-02-24T12:14:31;12.15;;;3.00;;
42098;SDS011;27758;55.900;8.516;2023-02-24T12:17:07;25.35;;;4.95;;
42098;SDS011;27758;55.900;8.516;2023-02-24T12:22:15;24.30;;;5.28;;
42098;SDS011;27758;55.900;8.516;2023-02-24T12:24:47;22.58;;;4.95;;
42098;SDS011;27758;55.900;8.516;2023-02-24T12:38:26;29.20;;;11.15;;
42098;SDS011;27758;55.900;8.516;2023-02-24T12:46:37;21.13;;;9.95;;
42098;SDS011;27758;55.900;8.516;2023-02-24T12:54:52;13.30;;;4.57;;
42098;SDS011;27758;55.900;8.516;2023-02-24T13:00:21;16.45;;;4.38;;
42098;SDS011;27758;55.900;8.516;2023-02-24T13:03:06;11.48;;;3.45;;
42098;SDS011;27758;55.900;8.516;2023-02-24T13:05:36;21.67;;;4.27;;
42098;SDS011;27758;55.900;8.516;2023-02-24T13:08:35;13.45;;;2.72;;
42098;SDS011;27758;55.900;8.516;2023-02-24T13:11:07;13.82;;;2.97;;
42098;SDS011;27758;55.900;8.516;2023-02-24T13:14:01;18.30;;;3.45;;
42098;SDS011;27758;55.900;8.516;2023-02-24T13:16:33;10.80;;;3.08;;
42098;SDS011;27758;55.900;8.516;2023-02-24T13:19:03;12.68;;;3.10;;
42098;SDS011;27758;55.900;8.516;2023-02-24T13:22:05;14.63;;;3.38;;
42098;SDS011;27758;55.900;8.516;2023-02-24T13:29:49;13.98;;;2.70;;
42098;SDS011;27758;55.900;8.516;2023-02-24T13:34:54;9.98;;;2.33;;
42098;SDS011;27758;55.900;8.516;2023-02-24T13:37:31;11.00;;;2.60;;
42098;SDS011;27758;55.900;8.516;2023-02-24T13:39:59;9.43;;;2.85;;
42098;SDS011;27758;55.900;8.516;2023-02-24T13:42:36;7.93;;;1.90;;
42098;SDS011;27758;55.900;8.516;2023-02-24T13:58:37;3.33;;;0.93;;
42098;SDS011;27758;55.900;8.516;2023-02-24T14:01:50;8.55;;;0.77;;
42098;SDS011;27758;55.900;8.516;2023-02-24T14:04:31;1.88;;;0.70;;
42098;SDS011;27758;55.900;8.516;2023-02-24T14:07:01;5.45;;;1.83;;
42098;SDS011;27758;55.900;8.516;2023-02-24T14:09:33;5.47;;;1.00;;
42098;SDS011;27758;55.900;8.516;2023-02-24T14:12:11;6.75;;;1.20;;
42098;SDS011;27758;55.900;8.516;2023-02-24T14:14:41;1.58;;;0.65;;
42098;SDS011;27758;55.900;8.516;2023-02-24T14:25:43;3.58;;;1.20;;
42098;SDS011;27758;55.900;8.516;2023-02-24T14:28:17;3.38;;;1.08;;
42098;SDS011;27758;55.900;8.516;2023-02-24T14:30:50;2.30;;;0.75;;
42098;SDS011;27758;55.900;8.516;2023-02-24T14:33:24;3.38;;;0.90;;
42098;SDS011;27758;55.900;8.516;2023-02-24T14:35:55;5.60;;;0.88;;
42098;SDS011;27758;55.900;8.516;2023-02-24T14:38:38;3.58;;;1.08;;
42098;SDS011;27758;55.900;8.516;2023-02-24T14:41:06;5.40;;;1.02;;
42098;SDS011;27758;55.900;8.516;2023-02-24T14:43:41;4.43;;;0.93;;
42098;SDS011;27758;55.900;8.516;2023-02-24T14:46:07;4.75;;;0.85;;
42098;SDS011;27758;55.900;8.516;2023-02-24T14:48:33;3.72;;;0.68;;
42098;SDS011;27758;55.900;8.516;2023-02-24T14:51:06;3.97;;;1.02;;
42098;SDS011;27758;55.900;8.516;2023-02-24T14:53:46;4.72;;;0.90;;
42098;SDS011;27758;55.900;8.516;2023-02-24T14:56:15;1.92;;;0.50;;
42098;SDS011;27758;55.900;8.516;2023-02-24T14:58:45;2.80;;;0.50;;
42098;SDS011;27758;55.900;8.516;2023-02-24T15:01:19;2.47;;;0.77;;
42098;SDS011;27758;55.900;8.516;2023-02-24T15:03:50;1.08;;;0.80;;
42098;SDS011;27758;55.900;8.516;2023-02-24T15:06:25;7.07;;;1.63;;
42098;SDS011;27758;55.900;8.516;2023-02-24T15:09:00;5.50;;;1.45;;
42098;SDS011;27758;55.900;8.516;2023-02-24T15:11:30;4.05;;;0.80;;
42098;SDS011;27758;55.900;8.516;2023-02-24T15:13:58;10.65;;;2.33;;
42098;SDS011;27758;55.900;8.516;2023-02-24T15:16:28;3.45;;;1.27;;
42098;SDS011;27758;55.900;8.516;2023-02-24T15:19:01;3.38;;;1.00;;
42098;SDS011;27758;55.900;8.516;2023-02-24T15:21:28;6.88;;;1.13;;
42098;SDS011;27758;55.900;8.516;2023-02-24T15:24:23;6.97;;;1.25;;
42098;SDS011;27758;55.900;8.516;2023-02-24T15:26:56;9.98;;;1.85;;
42098;SDS011;27758;55.900;8.516;2023-02-24T15:29:27;8.13;;;1.75;;
42098;SDS011;27758;55.900;8.516;2023-02-24T15:31:55;10.30;;;1.75;;
42098;SDS011;27758;55.900;8.516;2023-02-24T15:34:24;27.48;;;3.08;;
42098;SDS011;27758;55.900;8.516;2023-02-24T15:36:56;11.27;;;2.20;;
42098;SDS011;27758;55.900;8.516;2023-02-24T15:39:27;9.48;;;2.00;;
42098;SDS011;27758;55.900;8.516;2023-02-24T15:44:39;5.50;;;0.85;;
42098;SDS011;27758;55.900;8.516;2023-02-24T15:47:21;3.92;;;1.05;;
42098;SDS011;27758;55.900;8.516;2023-02-24T15:49:49;6.23;;;1.67;;
42098;SDS011;27758;55.900;8.516;2023-02-24T15:52:16;4.85;;;1.08;;
42098;SDS011;27758;55.900;8.516;2023-02-24T15:54:46;11.23;;;1.92;;
42098;SDS011;27758;55.900;8.516;2023-02-24T15:57:13;4.28;;;1.05;;
42098;SDS011;27758;55.900;8.516;2023-02-24T15:59:40;3.83;;;1.17;;
42098;SDS011;27758;55.900;8.516;2023-02-24T16:02:24;6.07;;;1.10;;
42098;SDS011;27758;55.900;8.516;2023-02-24T16:04:51;3.65;;;0.90;;
42098;SDS011;27758;55.900;8.516;2023-02-24T16:07:25;6.07;;;1.00;;
42098;SDS011;27758;55.900;8.516;2023-02-24T16:09:54;11.07;;;1.20;;
42098;SDS011;27758;55.900;8.516;2023-02-24T16:12:23;5.68;;;1.38;;
42098;SDS011;27758;55.900;8.516;2023-02-24T16:14:58;6.40;;;1.38;;
42098;SDS011;27758;55.900;8.516;2023-02-24T16:19:56;6.32;;;1.40;;
42098;SDS011;27758;55.900;8.516;2023-02-24T16:22:23;7.70;;;1.45;;
42098;SDS011;27758;55.900;8.516;2023-02-24T16:24:49;5.03;;;1.08;;
42098;SDS011;27758;55.900;8.516;2023-02-24T16:27:15;7.03;;;1.25;;
42098;SDS011;27758;55.900;8.516;2023-02-24T16:29:45;11.13;;;2.63;;
42098;SDS011;27758;55.900;8.516;2023-02-24T16:32:13;4.43;;;1.40;;
42098;SDS011;27758;55.900;8.516;2023-02-24T16:34:39;4.28;;;1.10;;
42098;SDS011;27758;55.900;8.516;2023-02-24T16:37:16;5.85;;;1.52;;
42098;SDS011;27758;55.900;8.516;2023-02-24T16:39:50;6.85;;;0.90;;
42098;SDS011;27758;55.900;8.516;2023-02-24T16:42:17;3.83;;;0.90;;
42098;SDS011;27758;55.900;8.516;2023-02-24T16:44:43;7.47;;;1.00;;
42098;SDS011;27758;55.900;8.516;2023-02-24T16:47:11;6.28;;;1.60;;
42098;SDS011;27758;55.900;8.516;2023-02-24T16:49:40;2.65;;;1.30;;
42098;SDS011;27758;55.900;8.516;2023-02-24T16:52:06;6.53;;;1.40;;
42098;SDS011;27758;55.900;8.516;2023-02-24T16:54:31;6.55;;;0.93;;
42098;SDS011;27758;55.900;8.516;2023-02-24T16:56:57;7.63;;;1.40;;
42098;SDS011;27758;55.900;8.516;2023-02-24T16:59:23;6.22;;;1.20;;
42098;SDS011;27758;55.900;8.516;2023-02-24T17:01:52;8.32;;;1.58;;
42098;SDS011;27758;55.900;8.516;2023-02-24T17:04:19;3.80;;;1.13;;
42098;SDS011;27758;55.900;8.516;2023-02-24T17:06:46;5.95;;;1.17;;
42098;SDS011;27758;55.900;8.516;2023-02-24T17:09:12;11.73;;;1.95;;
42098;SDS011;27758;55.900;8.516;2023-02-24T17:11:40;7.30;;;1.38;;
42098;SDS011;27758;55.900;8.516;2023-02-24T17:14:10;11.55;;;1.60;;
42098;SDS011;27758;55.900;8.516;2023-02-24T17:16:42;15.13;;;3.22;;
42098;SDS011;27758;55.900;8.516;2023-02-24T17:19:08;7.72;;;1.50;;
42098;SDS011;27758;55.900;8.516;2023-02-24T17:21:40;5.45;;;1.20;;
42098;SDS011;27758;55.900;8.516;2023-02-24T17:24:11;9.88;;;1.67;;
42098;SDS011;27758;55.900;8.516;2023-02-24T17:26:39;5.32;;;1.63;;
42098;SDS011;27758;55.900;8.516;2023-02-24T17:29:05;3.72;;;1.42;;
42098;SDS011;27758;55.900;8.516;2023-02-24T17:31:31;10.82;;;2.63;;
42098;SDS011;27758;55.900;8.516;2023-02-24T17:33:58;5.95;;;1.80;;
42098;SDS011;27758;55.900;8.516;2023-02-24T17:36:24;8.00;;;2.13;;
42098;SDS011;27758;55.900;8.516;2023-02-24T17:38:50;10.25;;;2.28;;
42098;SDS011;27758;55.900;8.516;2023-02-24T17:41:15;8.70;;;2.28;;
42098;SDS011;27758;55.900;8.516;2023-02-24T17:43:41;5.10;;;1.50;;
42098;SDS011;27758;55.900;8.516;2023-02-24T17:46:07;8.55;;;2.47;;
42098;SDS011;27758;55.900;8.516;2023-02-24T17:48:33;7.35;;;1.95;;
42098;SDS011;27758;55.900;8.516;2023-02-24T17:50:59;5.35;;;1.95;;
42098;SDS011;27758;55.900;8.516;2023-02-24T17:53:25;7.30;;;1.60;;
42098;SDS011;27758;55.900;8.516;2023-02-24T17:56:02;10.23;;;2.10;;